AEE772 LGTS-EPWA
Flight info
| Callsign | AEE772 |
|---|---|
| Flight time | 1h 41m |
| Altitude | 38000 |
| Route | ODIKO UM987 ATFIR DCT OVDOT DCT NARKA DCT KEKED DCT ORTEB DCT KONZI DCT LOGDA |
| Aircraft | A20N/M-SDE2E3FGHIRWXY/LB1 |
Departure
| Time | 2026-05-07 09:43 |
|---|---|
| Airport | Thessaloniki Macedonia International Airport (LGTS) |
Arrival
| Time | 2026-05-07 11:25 |
|---|---|
| Airport | Warsaw Chopin Airport (EPWA) |
| Time | Latitude | Longitude | Altitude | Speed | Heading |
|---|---|---|---|---|---|
| 2026-05-07 09:15 | 40.52322 | 22.97575 | 17 ft | 0 kts | 45° |
| 2026-05-07 09:37 | 40.52316 | 22.97567 | 28 ft | 2 kts | 45° |
| 2026-05-07 09:37 | 40.52304 | 22.97551 | 28 ft | 2 kts | 45° |
| 2026-05-07 09:37 | 40.52292 | 22.97535 | 28 ft | 2 kts | 48° |
| 2026-05-07 09:37 | 40.52283 | 22.97517 | 28 ft | 2 kts | 89° |
| 2026-05-07 09:38 | 40.52289 | 22.97499 | 28 ft | 2 kts | 137° |
| 2026-05-07 09:38 | 40.52295 | 22.97492 | 28 ft | 0 kts | 135° |
| 2026-05-07 09:40 | 40.52283 | 22.97507 | 28 ft | 6 kts | 135° |
| 2026-05-07 09:40 | 40.52225 | 22.97583 | 28 ft | 17 kts | 135° |
| 2026-05-07 09:41 | 40.52120 | 22.97690 | 28 ft | 21 kts | 135° |
| 2026-05-07 09:41 | 40.52011 | 22.97842 | 28 ft | 25 kts | 126° |
| 2026-05-07 09:41 | 40.51958 | 22.98067 | 28 ft | 27 kts | 104° |
| 2026-05-07 09:41 | 40.51913 | 22.98313 | 28 ft | 28 kts | 103° |
| 2026-05-07 09:42 | 40.51866 | 22.98567 | 28 ft | 29 kts | 104° |
| 2026-05-07 09:42 | 40.51799 | 22.98708 | 28 ft | 14 kts | 179° |
| 2026-05-07 09:42 | 40.51700 | 22.98674 | 28 ft | 16 kts | 197° |
| 2026-05-07 09:42 | 40.51689 | 22.98605 | 28 ft | 8 kts | 289° |
| 2026-05-07 09:43 | 40.51704 | 22.98518 | 27 ft | 20 kts | 283° |
| 2026-05-07 09:43 | 40.51810 | 22.97962 | 29 ft | 104 kts | 284° |
| 2026-05-07 09:43 | 40.52045 | 22.96728 | 87 ft | 163 kts | 284° |
| 2026-05-07 09:43 | 40.52329 | 22.95232 | 715 ft | 176 kts | 284° |
| 2026-05-07 09:44 | 40.52651 | 22.93616 | 1509 ft | 187 kts | 284° |
| 2026-05-07 09:44 | 40.53028 | 22.91963 | 2393 ft | 189 kts | 287° |
| 2026-05-07 09:44 | 40.53438 | 22.90364 | 3268 ft | 185 kts | 289° |
| 2026-05-07 09:44 | 40.53891 | 22.88791 | 4193 ft | 177 kts | 291° |
| 2026-05-07 09:45 | 40.54427 | 22.87378 | 4947 ft | 181 kts | 305° |
| 2026-05-07 09:45 | 40.55425 | 22.86270 | 5546 ft | 191 kts | 334° |
| 2026-05-07 09:45 | 40.56734 | 22.85686 | 6023 ft | 210 kts | 341° |
| 2026-05-07 09:45 | 40.58213 | 22.85167 | 6464 ft | 230 kts | 347° |
| 2026-05-07 09:46 | 40.59875 | 22.84789 | 6813 ft | 255 kts | 350° |
| 2026-05-07 09:46 | 40.61708 | 22.84451 | 7252 ft | 277 kts | 351° |
| 2026-05-07 09:46 | 40.63656 | 22.84098 | 7996 ft | 284 kts | 350° |
| 2026-05-07 09:46 | 40.65621 | 22.83727 | 8933 ft | 288 kts | 349° |
| 2026-05-07 09:47 | 40.67616 | 22.83335 | 9860 ft | 291 kts | 349° |
| 2026-05-07 09:47 | 40.69644 | 22.82928 | 10610 ft | 301 kts | 348° |
| 2026-05-07 09:47 | 40.71796 | 22.82490 | 10930 ft | 324 kts | 349° |
| 2026-05-07 09:47 | 40.74101 | 22.82021 | 11291 ft | 343 kts | 349° |
| 2026-05-07 09:48 | 40.76479 | 22.81538 | 12056 ft | 348 kts | 349° |
| 2026-05-07 09:48 | 40.78891 | 22.81048 | 12863 ft | 352 kts | 348° |
| 2026-05-07 09:48 | 40.81321 | 22.80553 | 13689 ft | 355 kts | 348° |
| 2026-05-07 09:48 | 40.83751 | 22.80057 | 14388 ft | 359 kts | 348° |
| 2026-05-07 09:49 | 40.86236 | 22.79548 | 15088 ft | 363 kts | 348° |
| 2026-05-07 09:49 | 40.88747 | 22.79033 | 15781 ft | 367 kts | 349° |
| 2026-05-07 09:49 | 40.91278 | 22.78514 | 16472 ft | 370 kts | 349° |
| 2026-05-07 09:49 | 40.93848 | 22.77987 | 16967 ft | 375 kts | 349° |
| 2026-05-07 09:50 | 40.96435 | 22.77457 | 17109 ft | 375 kts | 349° |
| 2026-05-07 09:50 | 40.99019 | 22.76925 | 17137 ft | 376 kts | 349° |
| 2026-05-07 09:50 | 41.01603 | 22.76394 | 17138 ft | 376 kts | 349° |
| 2026-05-07 09:50 | 41.04186 | 22.75863 | 17141 ft | 376 kts | 349° |
| 2026-05-07 09:51 | 41.06771 | 22.75330 | 17141 ft | 376 kts | 349° |
| 2026-05-07 09:51 | 41.09365 | 22.74795 | 17146 ft | 376 kts | 349° |
| 2026-05-07 09:51 | 41.11959 | 22.74259 | 17336 ft | 380 kts | 349° |
| 2026-05-07 09:51 | 41.14613 | 22.73711 | 18068 ft | 382 kts | 349° |
| 2026-05-07 09:52 | 41.17442 | 22.73126 | 18712 ft | 386 kts | 349° |
| 2026-05-07 09:52 | 41.20035 | 22.72588 | 19252 ft | 389 kts | 349° |
| 2026-05-07 09:52 | 41.22726 | 22.72030 | 19810 ft | 393 kts | 349° |
| 2026-05-07 09:52 | 41.25477 | 22.71460 | 20361 ft | 397 kts | 349° |
| 2026-05-07 09:53 | 41.28187 | 22.70898 | 20898 ft | 401 kts | 349° |
| 2026-05-07 09:53 | 41.30986 | 22.70316 | 21451 ft | 405 kts | 349° |
| 2026-05-07 09:53 | 41.33786 | 22.69735 | 22012 ft | 408 kts | 349° |
| 2026-05-07 09:53 | 41.36610 | 22.69148 | 22553 ft | 412 kts | 349° |
| 2026-05-07 09:54 | 41.39462 | 22.68554 | 23067 ft | 416 kts | 349° |
| 2026-05-07 09:54 | 41.42336 | 22.67957 | 23609 ft | 420 kts | 349° |
| 2026-05-07 09:54 | 41.45237 | 22.67353 | 24072 ft | 423 kts | 349° |
| 2026-05-07 09:54 | 41.47557 | 22.66869 | 24439 ft | 425 kts | 349° |
| 2026-05-07 09:55 | 41.50503 | 22.66253 | 24895 ft | 428 kts | 348° |
| 2026-05-07 09:55 | 41.53496 | 22.65628 | 25336 ft | 431 kts | 348° |
| 2026-05-07 09:55 | 41.56471 | 22.65006 | 25754 ft | 433 kts | 348° |
| 2026-05-07 09:55 | 41.59463 | 22.64380 | 26189 ft | 436 kts | 348° |
| 2026-05-07 09:56 | 41.61487 | 22.63956 | 26467 ft | 438 kts | 348° |
| 2026-05-07 09:56 | 41.64592 | 22.63304 | 26883 ft | 441 kts | 348° |
| 2026-05-07 09:56 | 41.67639 | 22.62665 | 27304 ft | 443 kts | 348° |
| 2026-05-07 09:56 | 41.70536 | 22.62056 | 27695 ft | 445 kts | 348° |
| 2026-05-07 09:57 | 41.73650 | 22.61402 | 28084 ft | 448 kts | 348° |
| 2026-05-07 09:57 | 41.76749 | 22.60751 | 28403 ft | 452 kts | 348° |
| 2026-05-07 09:57 | 41.79858 | 22.60096 | 28788 ft | 453 kts | 348° |
| 2026-05-07 09:57 | 41.82985 | 22.59438 | 29127 ft | 456 kts | 347° |
| 2026-05-07 09:58 | 41.86129 | 22.58775 | 29461 ft | 458 kts | 347° |
| 2026-05-07 09:58 | 41.89291 | 22.58107 | 29788 ft | 461 kts | 347° |
| 2026-05-07 09:58 | 41.92463 | 22.57436 | 30112 ft | 463 kts | 347° |
| 2026-05-07 09:58 | 41.95655 | 22.56760 | 30422 ft | 465 kts | 347° |
| 2026-05-07 09:59 | 41.98853 | 22.56082 | 30702 ft | 468 kts | 347° |
| 2026-05-07 09:59 | 42.02081 | 22.55398 | 31016 ft | 469 kts | 347° |
| 2026-05-07 09:59 | 42.05311 | 22.54713 | 31380 ft | 469 kts | 347° |
| 2026-05-07 09:59 | 42.08527 | 22.54031 | 31784 ft | 467 kts | 347° |
| 2026-05-07 10:00 | 42.11734 | 22.53350 | 32204 ft | 465 kts | 347° |
| 2026-05-07 10:00 | 42.14925 | 22.52671 | 32611 ft | 464 kts | 347° |
| 2026-05-07 10:00 | 42.18105 | 22.51993 | 33008 ft | 462 kts | 347° |
| 2026-05-07 10:00 | 42.21279 | 22.51315 | 33347 ft | 461 kts | 347° |
| 2026-05-07 10:01 | 42.24456 | 22.50636 | 33685 ft | 460 kts | 347° |
| 2026-05-07 10:01 | 42.27572 | 22.49969 | 34043 ft | 459 kts | 346° |
| 2026-05-07 10:01 | 42.30762 | 22.49285 | 34360 ft | 458 kts | 346° |
| 2026-05-07 10:01 | 42.33867 | 22.48620 | 34653 ft | 457 kts | 346° |
| 2026-05-07 10:02 | 42.37009 | 22.47945 | 34932 ft | 457 kts | 346° |
| 2026-05-07 10:02 | 42.40149 | 22.47270 | 35204 ft | 456 kts | 346° |
| 2026-05-07 10:02 | 42.43292 | 22.46595 | 35474 ft | 455 kts | 346° |
| 2026-05-07 10:02 | 42.46419 | 22.45922 | 35745 ft | 454 kts | 346° |
| 2026-05-07 10:03 | 42.49536 | 22.45251 | 36011 ft | 453 kts | 346° |
| 2026-05-07 10:03 | 42.52647 | 22.44581 | 36375 ft | 451 kts | 346° |
| 2026-05-07 10:03 | 42.55752 | 22.43911 | 36595 ft | 452 kts | 346° |
| 2026-05-07 10:03 | 42.58852 | 22.43240 | 36858 ft | 450 kts | 346° |
| 2026-05-07 10:04 | 42.61948 | 22.42571 | 37120 ft | 449 kts | 346° |
| 2026-05-07 10:04 | 42.65028 | 22.41904 | 37348 ft | 448 kts | 346° |
| 2026-05-07 10:04 | 42.68099 | 22.41234 | 37795 ft | 442 kts | 348° |
| 2026-05-07 10:04 | 42.71112 | 22.40583 | 38053 ft | 437 kts | 346° |
| 2026-05-07 10:05 | 42.74085 | 22.39937 | 38137 ft | 439 kts | 346° |
| 2026-05-07 10:05 | 42.80161 | 22.38610 | 38129 ft | 443 kts | 347° |
| 2026-05-07 10:06 | 42.86259 | 22.37281 | 38135 ft | 444 kts | 347° |
| 2026-05-07 10:06 | 42.92363 | 22.35950 | 38130 ft | 444 kts | 347° |
| 2026-05-07 10:07 | 42.98463 | 22.34616 | 38129 ft | 444 kts | 347° |
| 2026-05-07 10:07 | 43.04573 | 22.33276 | 38135 ft | 445 kts | 347° |
| 2026-05-07 10:08 | 43.10699 | 22.31931 | 38124 ft | 445 kts | 347° |
| 2026-05-07 10:08 | 43.16778 | 22.30593 | 38125 ft | 446 kts | 347° |
| 2026-05-07 10:09 | 43.22953 | 22.29231 | 38131 ft | 446 kts | 347° |
| 2026-05-07 10:09 | 43.29058 | 22.27882 | 38124 ft | 445 kts | 347° |
| 2026-05-07 10:10 | 43.35175 | 22.26526 | 38127 ft | 446 kts | 347° |
| 2026-05-07 10:10 | 43.41307 | 22.25165 | 38122 ft | 446 kts | 347° |
| 2026-05-07 10:11 | 43.47435 | 22.23803 | 38118 ft | 447 kts | 347° |
| 2026-05-07 10:11 | 43.53574 | 22.22435 | 38115 ft | 446 kts | 347° |
| 2026-05-07 10:12 | 43.59710 | 22.21066 | 38098 ft | 446 kts | 347° |
| 2026-05-07 10:12 | 43.65783 | 22.19707 | 38092 ft | 445 kts | 347° |
| 2026-05-07 10:13 | 43.71908 | 22.18333 | 38091 ft | 445 kts | 347° |
| 2026-05-07 10:13 | 43.78014 | 22.16961 | 38085 ft | 444 kts | 347° |
| 2026-05-07 10:14 | 43.84118 | 22.15587 | 38082 ft | 444 kts | 347° |
| 2026-05-07 10:14 | 43.90231 | 22.14208 | 38086 ft | 444 kts | 347° |
| 2026-05-07 10:15 | 43.96335 | 22.12828 | 38078 ft | 445 kts | 347° |
| 2026-05-07 10:15 | 44.02456 | 22.11441 | 38090 ft | 446 kts | 347° |
| 2026-05-07 10:16 | 44.08588 | 22.10049 | 38085 ft | 446 kts | 347° |
| 2026-05-07 10:16 | 44.14718 | 22.08654 | 38091 ft | 447 kts | 347° |
| 2026-05-07 10:17 | 44.20862 | 22.07254 | 38095 ft | 448 kts | 347° |
| 2026-05-07 10:17 | 44.27019 | 22.05848 | 38090 ft | 448 kts | 347° |
| 2026-05-07 10:18 | 44.33118 | 22.04452 | 38090 ft | 446 kts | 347° |
| 2026-05-07 10:18 | 44.39249 | 22.03044 | 38082 ft | 446 kts | 347° |
| 2026-05-07 10:19 | 44.45416 | 22.01628 | 38085 ft | 446 kts | 347° |
| 2026-05-07 10:19 | 44.51543 | 22.00217 | 38088 ft | 446 kts | 347° |
| 2026-05-07 10:20 | 44.57669 | 21.98802 | 38071 ft | 446 kts | 347° |
| 2026-05-07 10:20 | 44.63800 | 21.97383 | 38073 ft | 446 kts | 347° |
| 2026-05-07 10:21 | 44.69919 | 21.95964 | 38064 ft | 446 kts | 347° |
| 2026-05-07 10:21 | 44.76040 | 21.94542 | 38065 ft | 446 kts | 347° |
| 2026-05-07 10:22 | 44.82166 | 21.93115 | 38068 ft | 445 kts | 347° |
| 2026-05-07 10:22 | 44.88248 | 21.91695 | 38053 ft | 446 kts | 347° |
| 2026-05-07 10:23 | 44.94381 | 21.90261 | 38051 ft | 446 kts | 347° |
| 2026-05-07 10:23 | 45.00514 | 21.88824 | 38055 ft | 447 kts | 347° |
| 2026-05-07 10:24 | 45.06646 | 21.87383 | 38055 ft | 447 kts | 347° |
| 2026-05-07 10:24 | 45.12707 | 21.85956 | 38057 ft | 447 kts | 347° |
| 2026-05-07 10:25 | 45.18857 | 21.84507 | 38051 ft | 447 kts | 347° |
| 2026-05-07 10:25 | 45.24992 | 21.83055 | 38055 ft | 447 kts | 347° |
| 2026-05-07 10:26 | 45.31129 | 21.81601 | 38049 ft | 447 kts | 347° |
| 2026-05-07 10:26 | 45.37255 | 21.80147 | 38052 ft | 446 kts | 347° |
| 2026-05-07 10:27 | 45.43346 | 21.78697 | 38048 ft | 446 kts | 347° |
| 2026-05-07 10:27 | 45.49475 | 21.77235 | 38049 ft | 445 kts | 347° |
| 2026-05-07 10:28 | 45.55596 | 21.75772 | 38050 ft | 446 kts | 346° |
| 2026-05-07 10:28 | 45.60690 | 21.74551 | 38056 ft | 446 kts | 346° |
| 2026-05-07 10:29 | 45.66865 | 21.73069 | 38064 ft | 447 kts | 346° |
| 2026-05-07 10:29 | 45.72982 | 21.71585 | 38054 ft | 444 kts | 346° |
| 2026-05-07 10:30 | 45.82216 | 21.69360 | 38059 ft | 451 kts | 346° |
| 2026-05-07 10:30 | 45.88443 | 21.67854 | 38059 ft | 458 kts | 346° |
| 2026-05-07 10:31 | 45.94775 | 21.66320 | 38057 ft | 463 kts | 346° |
| 2026-05-07 10:31 | 46.01121 | 21.64778 | 38056 ft | 466 kts | 346° |
| 2026-05-07 10:32 | 46.07535 | 21.63217 | 38056 ft | 467 kts | 346° |
| 2026-05-07 10:32 | 46.13944 | 21.61654 | 38059 ft | 466 kts | 346° |
| 2026-05-07 10:33 | 46.19241 | 21.60358 | 38058 ft | 467 kts | 346° |
| 2026-05-07 10:33 | 46.26838 | 21.58495 | 38057 ft | 467 kts | 346° |
| 2026-05-07 10:34 | 46.33285 | 21.56911 | 38053 ft | 467 kts | 346° |
| 2026-05-07 10:34 | 46.39653 | 21.55342 | 38048 ft | 467 kts | 346° |
| 2026-05-07 10:35 | 46.46235 | 21.53716 | 38045 ft | 467 kts | 346° |
| 2026-05-07 10:35 | 46.52558 | 21.52151 | 38026 ft | 467 kts | 346° |
| 2026-05-07 10:36 | 46.58968 | 21.50560 | 38030 ft | 467 kts | 346° |
| 2026-05-07 10:36 | 46.65379 | 21.48965 | 38030 ft | 467 kts | 346° |
| 2026-05-07 10:37 | 46.71796 | 21.47364 | 38036 ft | 467 kts | 346° |
| 2026-05-07 10:37 | 46.78204 | 21.45762 | 38028 ft | 467 kts | 346° |
| 2026-05-07 10:38 | 46.84730 | 21.44126 | 38028 ft | 467 kts | 346° |
| 2026-05-07 10:38 | 46.91229 | 21.42494 | 38029 ft | 467 kts | 346° |
| 2026-05-07 10:39 | 46.97628 | 21.40881 | 38026 ft | 467 kts | 346° |
| 2026-05-07 10:39 | 47.04033 | 21.39264 | 38020 ft | 467 kts | 346° |
| 2026-05-07 10:40 | 47.10483 | 21.37631 | 38020 ft | 467 kts | 346° |
| 2026-05-07 10:40 | 47.16836 | 21.36019 | 38016 ft | 467 kts | 346° |
| 2026-05-07 10:41 | 47.23247 | 21.34388 | 38014 ft | 467 kts | 346° |
| 2026-05-07 10:41 | 47.29704 | 21.32742 | 38013 ft | 467 kts | 346° |
| 2026-05-07 10:42 | 47.36062 | 21.31117 | 38016 ft | 468 kts | 346° |
| 2026-05-07 10:42 | 47.41530 | 21.29716 | 38015 ft | 468 kts | 346° |
| 2026-05-07 10:43 | 47.47951 | 21.28067 | 38015 ft | 468 kts | 346° |
| 2026-05-07 10:43 | 47.54359 | 21.26417 | 38012 ft | 468 kts | 346° |
| 2026-05-07 10:44 | 47.56483 | 21.25869 | 38011 ft | 468 kts | 346° |
| 2026-05-07 10:44 | 47.62892 | 21.24214 | 38007 ft | 468 kts | 346° |
| 2026-05-07 10:45 | 47.69333 | 21.22546 | 38002 ft | 468 kts | 346° |
| 2026-05-07 10:45 | 47.75685 | 21.20897 | 38000 ft | 468 kts | 346° |
| 2026-05-07 10:46 | 47.82202 | 21.19201 | 37993 ft | 468 kts | 346° |
| 2026-05-07 10:46 | 47.88632 | 21.17524 | 37993 ft | 468 kts | 346° |
| 2026-05-07 10:47 | 47.95523 | 21.15721 | 37990 ft | 469 kts | 346° |
| 2026-05-07 10:47 | 48.01575 | 21.14134 | 37985 ft | 468 kts | 346° |
| 2026-05-07 10:48 | 48.07967 | 21.12453 | 37984 ft | 469 kts | 346° |
| 2026-05-07 10:48 | 48.14439 | 21.10748 | 37983 ft | 469 kts | 346° |
| 2026-05-07 10:49 | 48.20865 | 21.09050 | 37974 ft | 469 kts | 346° |
| 2026-05-07 10:49 | 48.27279 | 21.07351 | 37977 ft | 468 kts | 346° |
| 2026-05-07 10:50 | 48.33714 | 21.05642 | 37976 ft | 469 kts | 346° |
| 2026-05-07 10:50 | 48.40255 | 21.03900 | 37974 ft | 469 kts | 346° |
| 2026-05-07 10:51 | 48.46744 | 21.02167 | 37968 ft | 469 kts | 346° |
| 2026-05-07 10:51 | 48.53248 | 21.00427 | 37970 ft | 469 kts | 346° |
| 2026-05-07 10:52 | 48.59654 | 20.98707 | 37969 ft | 469 kts | 346° |
| 2026-05-07 10:52 | 48.66083 | 20.96977 | 37967 ft | 470 kts | 346° |
| 2026-05-07 10:53 | 48.72567 | 20.95228 | 37967 ft | 470 kts | 346° |
| 2026-05-07 10:53 | 48.78961 | 20.93498 | 37966 ft | 470 kts | 346° |
| 2026-05-07 10:54 | 48.85447 | 20.91740 | 37965 ft | 470 kts | 346° |
| 2026-05-07 10:54 | 48.91888 | 20.89990 | 37967 ft | 470 kts | 346° |
| 2026-05-07 10:55 | 48.98330 | 20.88234 | 37958 ft | 470 kts | 346° |
| 2026-05-07 10:55 | 49.04689 | 20.86496 | 37958 ft | 471 kts | 346° |
| 2026-05-07 10:56 | 49.10308 | 20.84956 | 37949 ft | 471 kts | 346° |
| 2026-05-07 10:56 | 49.16755 | 20.83185 | 37960 ft | 471 kts | 346° |
| 2026-05-07 10:57 | 49.23260 | 20.81394 | 37947 ft | 471 kts | 346° |
| 2026-05-07 10:57 | 49.29718 | 20.79611 | 37945 ft | 472 kts | 346° |
| 2026-05-07 10:58 | 49.36180 | 20.77823 | 37942 ft | 472 kts | 346° |
| 2026-05-07 10:58 | 49.42629 | 20.76032 | 37933 ft | 472 kts | 346° |
| 2026-05-07 10:59 | 49.49158 | 20.74215 | 37934 ft | 472 kts | 346° |
| 2026-05-07 10:59 | 49.55641 | 20.72406 | 37931 ft | 472 kts | 346° |
| 2026-05-07 11:00 | 49.62108 | 20.70596 | 37928 ft | 473 kts | 346° |
| 2026-05-07 11:00 | 49.68588 | 20.68778 | 37925 ft | 473 kts | 346° |
| 2026-05-07 11:01 | 49.75064 | 20.66958 | 37925 ft | 474 kts | 346° |
| 2026-05-07 11:01 | 49.81617 | 20.65111 | 37928 ft | 473 kts | 346° |
| 2026-05-07 11:02 | 49.88129 | 20.63271 | 37923 ft | 474 kts | 346° |
| 2026-05-07 11:02 | 49.94636 | 20.61428 | 37920 ft | 474 kts | 346° |
| 2026-05-07 11:03 | 50.01153 | 20.59577 | 37924 ft | 474 kts | 346° |
| 2026-05-07 11:03 | 50.07661 | 20.57759 | 37917 ft | 475 kts | 348° |
| 2026-05-07 11:04 | 50.14295 | 20.57423 | 37909 ft | 481 kts | 1° |
| 2026-05-07 11:04 | 50.21034 | 20.58119 | 37922 ft | 481 kts | 0° |
| 2026-05-07 11:05 | 50.27726 | 20.58780 | 37922 ft | 482 kts | 0° |
| 2026-05-07 11:05 | 50.34409 | 20.59465 | 37624 ft | 478 kts | 0° |
| 2026-05-07 11:06 | 50.37736 | 20.59810 | 36978 ft | 478 kts | 0° |
| 2026-05-07 11:06 | 50.41114 | 20.60159 | 36144 ft | 479 kts | 1° |
| 2026-05-07 11:06 | 50.44428 | 20.60503 | 35332 ft | 477 kts | 1° |
| 2026-05-07 11:06 | 50.47676 | 20.60842 | 34367 ft | 475 kts | 1° |
| 2026-05-07 11:07 | 50.50988 | 20.61187 | 33181 ft | 477 kts | 1° |
| 2026-05-07 11:07 | 50.54297 | 20.61533 | 31956 ft | 478 kts | 1° |
| 2026-05-07 11:07 | 50.57627 | 20.61881 | 30711 ft | 480 kts | 1° |
| 2026-05-07 11:07 | 50.60860 | 20.62219 | 29791 ft | 475 kts | 1° |
| 2026-05-07 11:08 | 50.64220 | 20.62574 | 28887 ft | 466 kts | 1° |
| 2026-05-07 11:08 | 50.67393 | 20.62909 | 28376 ft | 460 kts | 1° |
| 2026-05-07 11:08 | 50.70549 | 20.63237 | 27801 ft | 463 kts | 1° |
| 2026-05-07 11:08 | 50.73757 | 20.63573 | 27217 ft | 459 kts | 1° |
| 2026-05-07 11:09 | 50.76942 | 20.63905 | 26628 ft | 458 kts | 1° |
| 2026-05-07 11:09 | 50.80127 | 20.64240 | 26042 ft | 456 kts | 1° |
| 2026-05-07 11:09 | 50.83320 | 20.64579 | 25449 ft | 452 kts | 1° |
| 2026-05-07 11:09 | 50.86429 | 20.64909 | 24870 ft | 447 kts | 1° |
| 2026-05-07 11:10 | 50.89489 | 20.65231 | 24295 ft | 458 kts | 1° |
| 2026-05-07 11:10 | 50.92706 | 20.65566 | 23964 ft | 473 kts | 1° |
| 2026-05-07 11:10 | 50.96055 | 20.65920 | 23746 ft | 472 kts | 1° |
| 2026-05-07 11:10 | 50.99317 | 20.66268 | 23019 ft | 473 kts | 1° |
| 2026-05-07 11:11 | 51.02617 | 20.66617 | 22146 ft | 474 kts | 1° |
| 2026-05-07 11:11 | 51.04834 | 20.66851 | 21620 ft | 471 kts | 1° |
| 2026-05-07 11:11 | 51.08118 | 20.67202 | 20823 ft | 466 kts | 1° |
| 2026-05-07 11:11 | 51.11343 | 20.67547 | 20078 ft | 461 kts | 1° |
| 2026-05-07 11:12 | 51.14538 | 20.67890 | 19381 ft | 456 kts | 1° |
| 2026-05-07 11:12 | 51.17688 | 20.68229 | 18759 ft | 453 kts | 1° |
| 2026-05-07 11:12 | 51.20847 | 20.68566 | 18178 ft | 450 kts | 1° |
| 2026-05-07 11:12 | 51.23973 | 20.68902 | 17498 ft | 445 kts | 1° |
| 2026-05-07 11:13 | 51.27160 | 20.69327 | 16872 ft | 443 kts | 6° |
| 2026-05-07 11:13 | 51.30174 | 20.70350 | 16547 ft | 442 kts | 14° |
| 2026-05-07 11:13 | 51.33091 | 20.71869 | 15985 ft | 444 kts | 17° |
| 2026-05-07 11:13 | 51.36043 | 20.73450 | 15389 ft | 439 kts | 17° |
| 2026-05-07 11:14 | 51.38903 | 20.74975 | 14808 ft | 432 kts | 17° |
| 2026-05-07 11:14 | 51.41774 | 20.76509 | 14221 ft | 430 kts | 17° |
| 2026-05-07 11:14 | 51.44608 | 20.78026 | 13659 ft | 426 kts | 17° |
| 2026-05-07 11:14 | 51.47398 | 20.79525 | 13043 ft | 420 kts | 17° |
| 2026-05-07 11:15 | 51.50174 | 20.81019 | 12476 ft | 421 kts | 17° |
| 2026-05-07 11:15 | 51.52941 | 20.82509 | 11912 ft | 416 kts | 17° |
| 2026-05-07 11:15 | 51.55710 | 20.84004 | 11341 ft | 410 kts | 17° |
| 2026-05-07 11:15 | 51.58467 | 20.85494 | 10776 ft | 411 kts | 17° |
| 2026-05-07 11:16 | 51.61115 | 20.86926 | 10244 ft | 407 kts | 17° |
| 2026-05-07 11:16 | 51.63796 | 20.88378 | 9984 ft | 400 kts | 17° |
| 2026-05-07 11:16 | 51.66470 | 20.89827 | 9825 ft | 406 kts | 17° |
| 2026-05-07 11:16 | 51.69109 | 20.91260 | 9507 ft | 402 kts | 17° |
| 2026-05-07 11:17 | 51.72057 | 20.92827 | 8968 ft | 397 kts | 16° |
| 2026-05-07 11:17 | 51.74568 | 20.94136 | 8339 ft | 393 kts | 16° |
| 2026-05-07 11:17 | 51.77102 | 20.95686 | 7799 ft | 388 kts | 27° |
| 2026-05-07 11:17 | 51.79282 | 20.98315 | 7293 ft | 393 kts | 44° |
| 2026-05-07 11:18 | 51.81173 | 21.01465 | 6771 ft | 387 kts | 46° |
| 2026-05-07 11:18 | 51.82985 | 21.04646 | 6255 ft | 383 kts | 47° |
| 2026-05-07 11:18 | 51.84782 | 21.07817 | 5898 ft | 377 kts | 47° |
| 2026-05-07 11:18 | 51.86508 | 21.10841 | 5661 ft | 354 kts | 47° |
| 2026-05-07 11:19 | 51.88158 | 21.13708 | 5430 ft | 333 kts | 47° |
| 2026-05-07 11:19 | 51.89725 | 21.16311 | 5246 ft | 314 kts | 39° |
| 2026-05-07 11:19 | 51.91592 | 21.17915 | 5130 ft | 300 kts | 13° |
| 2026-05-07 11:19 | 51.93617 | 21.18089 | 5052 ft | 285 kts | 346° |
| 2026-05-07 11:20 | 51.95383 | 21.16897 | 5001 ft | 271 kts | 322° |
| 2026-05-07 11:20 | 51.96831 | 21.15088 | 4900 ft | 260 kts | 316° |
| 2026-05-07 11:20 | 51.98239 | 21.13285 | 4800 ft | 247 kts | 319° |
| 2026-05-07 11:20 | 51.99642 | 21.11702 | 4658 ft | 241 kts | 322° |
| 2026-05-07 11:21 | 52.01072 | 21.10272 | 4479 ft | 239 kts | 326° |
| 2026-05-07 11:21 | 52.02497 | 21.09010 | 4369 ft | 228 kts | 328° |
| 2026-05-07 11:21 | 52.03856 | 21.07826 | 4220 ft | 216 kts | 327° |
| 2026-05-07 11:21 | 52.05168 | 21.06642 | 3798 ft | 209 kts | 326° |
| 2026-05-07 11:22 | 52.06429 | 21.05616 | 3411 ft | 193 kts | 332° |
| 2026-05-07 11:22 | 52.07240 | 21.05039 | 3139 ft | 186 kts | 329° |
| 2026-05-07 11:22 | 52.08331 | 21.04106 | 2792 ft | 173 kts | 325° |
| 2026-05-07 11:22 | 52.09372 | 21.03187 | 2495 ft | 164 kts | 324° |
| 2026-05-07 11:23 | 52.10352 | 21.02276 | 2150 ft | 161 kts | 323° |
| 2026-05-07 11:23 | 52.11317 | 21.01350 | 1899 ft | 161 kts | 323° |
| 2026-05-07 11:23 | 52.12287 | 21.00447 | 1634 ft | 156 kts | 326° |
| 2026-05-07 11:23 | 52.13248 | 20.99601 | 1171 ft | 155 kts | 328° |
| 2026-05-07 11:24 | 52.14165 | 20.98803 | 788 ft | 143 kts | 329° |
| 2026-05-07 11:24 | 52.15021 | 20.98065 | 472 ft | 133 kts | 330° |
| 2026-05-07 11:24 | 52.15794 | 20.97397 | 368 ft | 117 kts | 329° |
| 2026-05-07 11:24 | 52.16400 | 20.96862 | 365 ft | 73 kts | 330° |
| 2026-05-07 11:25 | 52.16693 | 20.96611 | 362 ft | 31 kts | 333° |
| 2026-05-07 11:25 | 52.16853 | 20.96523 | 363 ft | 21 kts | 353° |
| 2026-05-07 11:25 | 52.16964 | 20.96513 | 366 ft | 13 kts | 0° |
| 2026-05-07 11:25 | 52.17035 | 20.96514 | 361 ft | 9 kts | 1° |
| 2026-05-07 11:26 | 52.17076 | 20.96533 | 361 ft | 5 kts | 41° |
| 2026-05-07 11:26 | 52.17093 | 20.96591 | 364 ft | 7 kts | 71° |
| 2026-05-07 11:26 | 52.17121 | 20.96676 | 368 ft | 10 kts | 55° |
| 2026-05-07 11:26 | 52.17164 | 20.96788 | 362 ft | 13 kts | 72° |
| 2026-05-07 11:27 | 52.17089 | 20.96899 | 363 ft | 22 kts | 154° |
| 2026-05-07 11:27 | 52.16948 | 20.97021 | 367 ft | 25 kts | 152° |
| 2026-05-07 11:27 | 52.16820 | 20.97156 | 364 ft | 14 kts | 119° |
| 2026-05-07 11:27 | 52.16821 | 20.97299 | 360 ft | 8 kts | 82° |
| 2026-05-07 11:28 | 52.16824 | 20.97319 | 360 ft | 0 kts | 73° |